Time;durP1;ratioP1;P1;durP2;ratioP2;P2;SDS_P1;SDS_P2;PMS_P1;PMS_P2;Temp;Humidity;BMP_temperature;BMP_pressure;BME280_temperature;BME280_humidity;BME280_pressure;Samples;Min_cycle;Max_cycle;Signal;HPM_P1;HPM_P2
2023/09/21 00:00:18;;;;;;;20.63;19.43;;;15.90;99.90;;;;;;5111961;28;20452;-72
2023/09/21 00:02:49;;;;;;;26.13;24.73;;;15.80;99.90;;;;;;5111853;28;20446;-72
2023/09/21 00:05:19;;;;;;;28.70;27.13;;;15.70;99.90;;;;;;5111229;28;20451;-73
2023/09/21 00:07:47;;;;;;;33.20;31.60;;;15.60;99.90;;;;;;5112353;28;20533;-72
2023/09/21 00:10:15;;;;;;;30.93;29.33;;;15.60;99.90;;;;;;5112178;28;20453;-73
2023/09/21 00:12:42;;;;;;;30.40;28.87;;;15.70;99.90;;;;;;5112027;28;21012;-72
2023/09/21 00:15:12;;;;;;;26.53;25.13;;;15.70;99.90;;;;;;5112472;28;20533;-72
2023/09/21 00:17:39;;;;;;;21.60;20.30;;;15.70;99.90;;;;;;5112304;28;20556;-72
2023/09/21 00:20:22;;;;;;;18.17;16.97;;;15.80;99.90;;;;;;5112412;28;20811;-74
2023/09/21 00:22:51;;;;;;;14.80;13.63;;;15.90;99.90;;;;;;5112474;28;20532;-72
2023/09/21 00:25:19;;;;;;;9.27;8.43;;;15.90;99.90;;;;;;5112058;28;20535;-73
2023/09/21 00:27:46;;;;;;;12.13;8.10;;;16.10;99.90;;;;;;5112010;28;20440;-73
2023/09/21 00:30:13;;;;;;;9.70;6.03;;;16.10;99.90;;;;;;5112052;28;20456;-73
2023/09/21 00:32:41;;;;;;;6.97;4.67;;;16.20;99.90;;;;;;5112131;28;20823;-74
2023/09/21 00:35:10;;;;;;;7.50;4.63;;;16.20;99.90;;;;;;5115624;28;20550;-72
2023/09/21 00:37:39;;;;;;;8.47;4.50;;;16.30;99.90;;;;;;5116260;28;20477;-73
2023/09/21 00:40:23;;;;;;;7.03;4.07;;;16.40;99.90;;;;;;5116143;28;20816;-73
2023/09/21 00:42:51;;;;;;;6.67;4.37;;;16.30;99.90;;;;;;5115917;28;20516;-73
2023/09/21 00:45:20;;;;;;;6.80;3.83;;;16.30;99.90;;;;;;5116318;27;20556;-72
2023/09/21 00:47:50;;;;;;;8.43;3.97;;;16.40;99.90;;;;;;5116189;28;20588;-73
2023/09/21 00:50:20;;;;;;;5.83;3.47;;;16.30;99.90;;;;;;5115838;28;20449;-73
2023/09/21 00:52:51;;;;;;;7.33;4.30;;;16.40;99.90;;;;;;5115265;28;20440;-72
2023/09/21 00:55:23;;;;;;;6.10;3.83;;;16.30;99.90;;;;;;5115653;27;20453;-72
2023/09/21 00:57:52;;;;;;;6.50;4.00;;;16.20;99.90;;;;;;5115920;28;20492;-72
2023/09/21 01:00:19;;;;;;;7.60;4.23;;;16.10;99.90;;;;;;5115364;28;20448;-73
2023/09/21 01:02:49;;;;;;;6.47;5.13;;;16.10;99.90;;;;;;5115709;28;20458;-72
2023/09/21 01:05:17;;;;;;;7.47;5.10;;;16.00;99.90;;;;;;5115164;28;20450;-72
2023/09/21 01:07:46;;;;;;;5.57;4.37;;;16.00;99.90;;;;;;5113430;28;20447;-73
2023/09/21 01:10:13;;;;;;;7.77;4.87;;;16.00;99.90;;;;;;5113834;28;20459;-73
2023/09/21 01:12:44;;;;;;;11.93;4.50;;;16.00;99.90;;;;;;5115025;28;20460;-73
2023/09/21 01:15:13;;;;;;;5.30;4.30;;;16.10;99.90;;;;;;5114972;28;20510;-73
2023/09/21 01:17:42;;;;;;;8.17;4.63;;;16.10;99.90;;;;;;5115018;28;20482;-72
2023/09/21 01:20:22;;;;;;;7.90;5.10;;;16.00;99.90;;;;;;5094499;28;20451;-72
2023/09/21 01:22:58;;;;;;;6.83;4.77;;;16.00;99.90;;;;;;5094889;28;20450;-73
2023/09/21 01:25:26;;;;;;;5.93;4.77;;;16.10;99.90;;;;;;5094821;28;20453;-73
2023/09/21 01:27:54;;;;;;;5.90;4.27;;;16.10;99.90;;;;;;5104340;28;20508;-73
2023/09/21 01:30:21;;;;;;;5.87;4.23;;;16.10;99.90;;;;;;5115056;28;20446;-73
2023/09/21 01:32:48;;;;;;;6.30;4.53;;;16.10;99.90;;;;;;5114810;28;20536;-73
2023/09/21 01:35:16;;;;;;;10.73;4.97;;;16.00;99.90;;;;;;5115381;28;20505;-72
2023/09/21 01:37:45;;;;;;;7.27;5.03;;;16.00;99.90;;;;;;5115200;28;20510;-73
2023/09/21 01:40:15;;;;;;;7.13;5.43;;;15.90;99.90;;;;;;5114884;28;20819;-73
2023/09/21 01:42:46;;;;;;;6.83;5.70;;;15.90;99.90;;;;;;5115051;28;20454;-72
2023/09/21 01:45:13;;;;;;;10.30;6.10;;;15.90;99.90;;;;;;5114823;28;20498;-72
2023/09/21 01:47:39;;;;;;;7.80;6.00;;;15.80;99.90;;;;;;5114942;28;20448;-72
2023/09/21 01:50:10;;;;;;;7.03;6.20;;;15.80;99.90;;;;;;5114828;28;20547;-72
2023/09/21 01:52:36;;;;;;;7.40;6.60;;;15.70;99.90;;;;;;5114772;28;20450;-72
2023/09/21 01:55:10;;;;;;;8.27;7.30;;;15.70;99.90;;;;;;5114831;28;20447;-73
2023/09/21 01:57:37;;;;;;;9.53;8.53;;;15.70;99.90;;;;;;5114509;28;20562;-72
2023/09/21 02:00:12;;;;;;;9.60;8.80;;;15.60;99.90;;;;;;5114044;28;20529;-73
2023/09/21 02:02:39;;;;;;;10.50;9.53;;;15.60;99.90;;;;;;5114697;28;20934;-72
2023/09/21 02:05:10;;;;;;;10.60;9.70;;;15.60;99.90;;;;;;5114212;28;20456;-72
2023/09/21 02:07:37;;;;;;;12.10;10.93;;;15.50;99.90;;;;;;5114574;28;20443;-73
2023/09/21 02:10:10;;;;;;;13.77;12.77;;;15.50;99.90;;;;;;5114047;28;20452;-72
2023/09/21 02:12:38;;;;;;;13.20;12.07;;;15.50;99.90;;;;;;5113790;28;20454;-72
2023/09/21 02:15:11;;;;;;;15.50;14.40;;;15.40;99.90;;;;;;5113607;28;20447;-73
2023/09/21 02:17:39;;;;;;;17.90;16.60;;;15.40;99.90;;;;;;5114128;28;20516;-72
2023/09/21 02:20:13;;;;;;;21.90;20.50;;;15.40;99.90;;;;;;5113540;28;20488;-72
2023/09/21 02:22:41;;;;;;;19.93;18.53;;;15.30;99.90;;;;;;5114400;28;20472;-72
2023/09/21 02:25:11;;;;;;;25.33;24.00;;;15.30;99.90;;;;;;5113912;28;20614;-72
2023/09/21 02:27:38;;;;;;;26.30;24.90;;;15.30;99.90;;;;;;5113826;28;20998;-73
2023/09/21 02:30:14;;;;;;;25.93;24.57;;;15.30;99.90;;;;;;5113503;28;20451;-72
2023/09/21 02:32:42;;;;;;;26.53;25.07;;;15.30;99.90;;;;;;5113455;28;20449;-72
2023/09/21 02:35:13;;;;;;;32.77;30.90;;;15.30;99.90;;;;;;5113562;28;20448;-72
2023/09/21 02:37:42;;;;;;;35.53;33.83;;;15.20;99.90;;;;;;5114015;28;20508;-72
2023/09/21 02:40:10;;;;;;;45.10;43.00;;;15.20;99.90;;;;;;5113644;28;20449;-73
2023/09/21 02:42:37;;;;;;;41.77;39.87;;;15.10;99.90;;;;;;5113680;28;20508;-72
2023/09/21 02:45:09;;;;;;;55.97;53.57;;;15.10;99.90;;;;;;5113787;28;20445;-72
2023/09/21 02:47:37;;;;;;;59.57;56.87;;;15.00;99.90;;;;;;5113632;28;20445;-72
2023/09/21 02:50:14;;;;;;;58.93;56.53;;;15.00;99.90;;;;;;5113658;28;20945;-73
2023/09/21 02:52:46;;;;;;;64.00;61.40;;;15.00;99.90;;;;;;5113404;28;20465;-72
2023/09/21 02:55:13;;;;;;;74.33;71.10;;;15.00;99.90;;;;;;5113725;28;20449;-72
2023/09/21 02:57:40;;;;;;;61.93;59.20;;;15.00;99.90;;;;;;5112283;28;20484;-73
2023/09/21 03:00:20;;;;;;;35.27;33.50;;;15.10;99.90;;;;;;5113453;28;20455;-73
2023/09/21 03:02:48;;;;;;;24.17;22.97;;;15.30;99.90;;;;;;5113446;28;20448;-72
2023/09/21 03:05:16;;;;;;;16.93;15.83;;;15.40;99.90;;;;;;5113588;28;20441;-73
2023/09/21 03:07:44;;;;;;;12.97;11.87;;;15.50;99.90;;;;;;5113321;28;20510;-73
2023/09/21 03:10:11;;;;;;;10.70;9.80;;;15.50;99.90;;;;;;5112803;28;20533;-72
2023/09/21 03:12:39;;;;;;;11.20;8.00;;;15.60;99.90;;;;;;5113518;28;20808;-72
2023/09/21 03:15:13;;;;;;;7.00;6.40;;;15.70;99.90;;;;;;5113428;28;20449;-73
2023/09/21 03:17:41;;;;;;;7.43;6.73;;;15.70;99.90;;;;;;5113149;28;20485;-72
2023/09/21 03:20:11;;;;;;;8.40;7.43;;;15.70;99.90;;;;;;5113053;28;20455;-73
2023/09/21 03:22:38;;;;;;;8.47;7.60;;;15.70;99.90;;;;;;5113190;28;20452;-72
2023/09/21 03:25:11;;;;;;;7.60;6.90;;;15.60;99.90;;;;;;5113071;28;20545;-72
2023/09/21 03:27:38;;;;;;;8.50;7.70;;;15.70;99.90;;;;;;5113313;28;20447;-73
2023/09/21 03:30:10;;;;;;;8.20;7.50;;;15.70;99.90;;;;;;5112738;28;20454;-72
2023/09/21 03:32:38;;;;;;;9.37;8.47;;;15.60;99.90;;;;;;5113044;28;20535;-72
2023/09/21 03:35:06;;;;;;;10.10;9.20;;;15.70;99.90;;;;;;5112731;28;20456;-72
2023/09/21 03:37:34;;;;;;;11.00;9.90;;;15.70;99.90;;;;;;5112807;28;20475;-72
2023/09/21 03:40:00;;;;;;;10.80;10.00;;;15.80;99.90;;;;;;5112782;28;20451;-73
2023/09/21 03:42:27;;;;;;;9.63;8.70;;;15.80;99.90;;;;;;5112812;28;20456;-72
2023/09/21 03:44:54;;;;;;;10.70;8.80;;;15.80;99.90;;;;;;5112927;28;20539;-72
2023/09/21 03:47:23;;;;;;;7.73;7.03;;;15.80;99.90;;;;;;5112754;28;20960;-73
2023/09/21 03:49:50;;;;;;;7.93;7.13;;;15.80;99.90;;;;;;5112349;28;20460;-72
2023/09/21 03:52:16;;;;;;;6.70;6.10;;;15.80;99.90;;;;;;5112554;28;20834;-73
2023/09/21 03:54:45;;;;;;;6.97;6.20;;;15.80;99.90;;;;;;5112563;28;20950;-72
2023/09/21 03:57:15;;;;;;;6.53;4.50;;;15.90;99.90;;;;;;5112563;28;20573;-72
2023/09/21 03:59:42;;;;;;;7.43;4.20;;;16.00;99.90;;;;;;5112483;28;20899;-72
2023/09/21 04:02:09;;;;;;;7.57;3.67;;;16.20;99.90;;;;;;5112289;28;20453;-72
2023/09/21 04:04:38;;;;;;;4.87;2.87;;;16.40;99.90;;;;;;5112390;28;20551;-73
2023/09/21 04:07:05;;;;;;;6.37;3.10;;;16.50;99.90;;;;;;5112713;28;20442;-72
2023/09/21 04:09:32;;;;;;;5.33;2.63;;;16.70;99.90;;;;;;5116710;28;20815;-72
2023/09/21 04:11:59;;;;;;;7.07;2.43;;;16.90;99.90;;;;;;5116757;28;20449;-72
2023/09/21 04:14:27;;;;;;;5.33;2.23;;;17.00;99.90;;;;;;5116829;28;20521;-73
2023/09/21 04:16:56;;;;;;;8.43;2.83;;;17.00;99.90;;;;;;5116535;28;20504;-73
2023/09/21 04:19:23;;;;;;;9.20;2.80;;;17.20;99.90;;;;;;5116804;28;20548;-74
2023/09/21 04:21:51;;;;;;;6.80;2.90;;;17.30;99.90;;;;;;5116395;28;20450;-74
2023/09/21 04:24:18;;;;;;;5.23;2.57;;;17.30;99.90;;;;;;5116251;28;20965;-74
2023/09/21 04:26:45;;;;;;;6.00;3.00;;;17.30;99.90;;;;;;5116462;28;20455;-73
2023/09/21 04:29:15;;;;;;;6.60;2.50;;;17.30;99.90;;;;;;5116412;28;20444;-73
2023/09/21 04:31:42;;;;;;;7.53;2.70;;;17.30;99.90;;;;;;5116787;27;20446;-73
2023/09/21 04:34:10;;;;;;;25.47;15.07;;;17.20;99.90;;;;;;5116302;27;20444;-74
2023/09/21 04:36:36;;;;;;;6.07;2.93;;;17.20;99.90;;;;;;5116509;28;20458;-73
2023/09/21 04:39:05;;;;;;;6.50;2.90;;;17.10;99.90;;;;;;5116078;28;20474;-73
2023/09/21 04:41:33;;;;;;;6.07;2.43;;;16.90;99.90;;;;;;5114553;28;20445;-73
2023/09/21 04:44:02;;;;;;;7.30;2.73;;;16.70;99.90;;;;;;5115660;28;20450;-73
2023/09/21 04:46:31;;;;;;;5.23;2.60;;;16.60;99.90;;;;;;5115967;28;20442;-73
2023/09/21 04:48:58;;;;;;;5.00;2.73;;;16.30;99.90;;;;;;5115817;28;20539;-72
2023/09/21 04:51:25;;;;;;;6.60;3.10;;;16.20;99.90;;;;;;5115791;28;20456;-73
2023/09/21 04:53:52;;;;;;;10.17;4.73;;;16.10;99.90;;;;;;5115938;28;20528;-73
2023/09/21 04:56:20;;;;;;;7.63;2.70;;;16.20;99.90;;;;;;5115746;28;20453;-72
2023/09/21 04:58:48;;;;;;;6.80;3.67;;;16.30;99.90;;;;;;5115219;27;20478;-73
2023/09/21 05:01:15;;;;;;;7.07;2.80;;;16.50;99.90;;;;;;5115191;28;20451;-72
2023/09/21 05:03:42;;;;;;;7.20;3.40;;;16.60;99.90;;;;;;5114996;28;20927;-73
2023/09/21 05:06:08;;;;;;;4.60;2.40;;;16.70;99.90;;;;;;5115161;28;20451;-72
2023/09/21 05:08:36;;;;;;;5.87;3.13;;;16.80;99.90;;;;;;5115418;27;20446;-73
2023/09/21 05:11:04;;;;;;;5.73;2.97;;;16.80;99.90;;;;;;5115073;28;21004;-72
2023/09/21 05:13:32;;;;;;;8.37;2.90;;;16.90;99.90;;;;;;5114387;28;20446;-73
2023/09/21 05:15:59;;;;;;;8.13;2.90;;;17.00;99.90;;;;;;5115570;28;20449;-74
2023/09/21 05:18:27;;;;;;;5.60;2.73;;;17.00;99.90;;;;;;5114933;28;21056;-73
2023/09/21 05:20:54;;;;;;;6.77;2.80;;;17.10;99.90;;;;;;5114315;28;20535;-73
2023/09/21 05:23:20;;;;;;;4.90;2.40;;;17.10;99.90;;;;;;5115372;28;20462;-73
2023/09/21 05:25:47;;;;;;;5.10;2.70;;;17.20;99.90;;;;;;5114506;28;20472;-74
2023/09/21 05:28:16;;;;;;;9.67;3.37;;;17.20;99.90;;;;;;5115316;28;20453;-72
2023/09/21 05:30:44;;;;;;;6.43;2.70;;;17.20;99.90;;;;;;5114964;28;20450;-73
2023/09/21 05:33:11;;;;;;;6.80;3.00;;;17.20;99.90;;;;;;5114537;28;20447;-72
2023/09/21 05:35:38;;;;;;;5.73;2.70;;;17.20;99.90;;;;;;5114817;28;20938;-73
2023/09/21 05:38:06;;;;;;;6.00;3.27;;;17.30;99.90;;;;;;5114690;27;20462;-73
2023/09/21 05:40:33;;;;;;;6.00;3.40;;;17.30;99.90;;;;;;5114724;28;20448;-73
2023/09/21 05:43:00;;;;;;;8.50;3.23;;;17.20;99.90;;;;;;5114862;28;20449;-72
2023/09/21 05:45:27;;;;;;;6.40;3.13;;;17.30;99.90;;;;;;5114825;28;20459;-72
2023/09/21 05:47:55;;;;;;;7.17;3.30;;;17.30;99.90;;;;;;5107137;28;20472;-73
2023/09/21 05:50:23;;;;;;;8.53;2.90;;;17.40;99.90;;;;;;5114504;28;20452;-73
2023/09/21 05:52:50;;;;;;;7.50;3.53;;;17.40;99.90;;;;;;5114833;28;20849;-72
2023/09/21 05:55:17;;;;;;;12.13;3.87;;;17.40;99.90;;;;;;5114955;28;20447;-73
2023/09/21 05:57:47;;;;;;;7.80;3.70;;;17.40;99.90;;;;;;5114196;28;20954;-73
2023/09/21 06:00:15;;;;;;;9.03;4.13;;;17.40;99.90;;;;;;5113502;28;20455;-72
2023/09/21 06:02:42;;;;;;;6.50;3.67;;;17.30;99.90;;;;;;5113764;28;20532;-73
2023/09/21 06:05:11;;;;;;;6.73;2.97;;;17.40;99.90;;;;;;5114510;28;20455;-73
2023/09/21 06:07:37;;;;;;;6.37;3.07;;;17.40;99.90;;;;;;5114417;28;20440;-73
2023/09/21 06:10:06;;;;;;;6.83;3.60;;;17.50;99.90;;;;;;5113827;28;20452;-73
2023/09/21 06:12:33;;;;;;;7.07;3.80;;;17.60;99.90;;;;;;5114092;28;20881;-73
2023/09/21 06:15:00;;;;;;;7.93;3.67;;;17.70;99.90;;;;;;5113873;28;20452;-73
2023/09/21 06:17:27;;;;;;;8.60;3.40;;;17.80;99.90;;;;;;5114025;28;20449;-72
2023/09/21 06:19:54;;;;;;;7.63;3.60;;;17.90;99.90;;;;;;5113410;28;20457;-73
2023/09/21 06:22:22;;;;;;;7.87;4.03;;;18.00;99.90;;;;;;5114037;28;20448;-73
2023/09/21 06:24:49;;;;;;;7.33;3.73;;;18.20;99.90;;;;;;5114086;28;20456;-72
2023/09/21 06:27:18;;;;;;;9.23;3.10;;;18.30;99.90;;;;;;5114144;28;20816;-73
2023/09/21 06:29:45;;;;;;;6.90;3.47;;;18.40;99.90;;;;;;5113968;28;20475;-73
2023/09/21 06:32:12;;;;;;;10.33;3.00;;;18.50;99.90;;;;;;5112665;28;20449;-73
2023/09/21 06:34:41;;;;;;;8.37;3.73;;;18.50;99.90;;;;;;5113655;28;20446;-72
2023/09/21 06:37:08;;;;;;;8.30;3.17;;;18.60;99.90;;;;;;5113530;28;20490;-73
2023/09/21 06:39:37;;;;;;;6.70;3.27;;;18.60;99.90;;;;;;5112905;28;20780;-72
2023/09/21 06:42:04;;;;;;;6.70;3.40;;;18.60;99.80;;;;;;5113554;28;20451;-73
2023/09/21 06:44:31;;;;;;;12.13;3.37;;;18.70;99.00;;;;;;5113399;28;20473;-75
2023/09/21 06:46:58;;;;;;;6.97;2.90;;;18.70;99.90;;;;;;5113350;28;20454;-74
2023/09/21 06:49:26;;;;;;;6.53;3.23;;;18.90;99.90;;;;;;5099481;28;20520;-72
2023/09/21 06:51:54;;;;;;;7.13;3.60;;;19.10;99.90;;;;;;5113495;28;20455;-73
2023/09/21 06:54:23;;;;;;;9.30;3.07;;;19.20;99.00;;;;;;5113623;28;20452;-72
2023/09/21 06:56:51;;;;;;;13.63;3.30;;;19.30;98.20;;;;;;5113667;28;20449;-73
2023/09/21 06:59:18;;;;;;;7.93;3.27;;;19.50;98.30;;;;;;5111936;28;20493;-73
2023/09/21 07:01:44;;;;;;;8.87;3.37;;;19.60;98.20;;;;;;5112878;27;20450;-72
2023/09/21 07:04:11;;;;;;;8.10;3.33;;;19.70;95.00;;;;;;5113221;28;20536;-73
2023/09/21 07:06:39;;;;;;;5.80;2.90;;;19.80;95.00;;;;;;5113046;28;20459;-72
2023/09/21 07:09:06;;;;;;;10.23;2.77;;;20.10;95.10;;;;;;5112835;28;20814;-73
2023/09/21 07:11:33;;;;;;;5.57;2.33;;;20.30;95.20;;;;;;5113200;28;20919;-72
2023/09/21 07:14:03;;;;;;;10.00;2.50;;;20.50;92.30;;;;;;5112827;28;20456;-72
2023/09/21 07:16:30;;;;;;;6.60;2.63;;;20.60;91.10;;;;;;5113124;28;20823;-71
2023/09/21 07:18:57;;;;;;;6.33;3.07;;;20.80;91.40;;;;;;5112841;28;20485;-72
2023/09/21 07:21:24;;;;;;;6.63;2.63;;;20.80;86.80;;;;;;5112657;28;20451;-71
2023/09/21 07:23:51;;;;;;;5.90;2.10;;;20.90;86.90;;;;;;5112707;28;20450;-72
2023/09/21 07:26:18;;;;;;;8.00;3.05;;;20.90;86.90;;;;;;5112205;28;20443;-73
2023/09/21 07:28:45;;;;;;;6.83;2.90;;;21.00;90.10;;;;;;5112065;28;20226;-73
2023/09/21 07:31:14;;;;;;;9.30;2.57;;;21.00;88.90;;;;;;5111792;28;20822;-74
2023/09/21 07:33:41;;;;;;;6.80;2.20;;;21.00;87.00;;;;;;5112397;28;20497;-73
2023/09/21 07:36:08;;;;;;;8.67;3.27;;;21.00;86.90;;;;;;5112300;28;20454;-70
2023/09/21 07:38:35;;;;;;;6.27;2.40;;;21.00;87.00;;;;;;5112408;28;20469;-72
2023/09/21 07:41:03;;;;;;;8.03;2.80;;;21.10;87.10;;;;;;5112418;28;20818;-72
2023/09/21 07:43:29;;;;;;;8.30;2.72;;;21.10;87.10;;;;;;5111402;28;20450;-72
2023/09/21 07:45:57;;;;;;;9.03;2.90;;;21.00;87.00;;;;;;5112874;28;20186;-72
2023/09/21 07:48:26;;;;;;;4.90;1.80;;;21.10;87.00;;;;;;5112663;28;20437;-72
2023/09/21 07:50:55;;;;;;;7.43;2.90;;;21.20;87.10;;;;;;5112326;28;20833;-71
2023/09/21 07:53:23;;;;;;;6.03;2.30;;;21.40;87.30;;;;;;5112675;28;20465;-71
2023/09/21 07:55:59;;;;;;;7.40;2.57;;;21.50;87.40;;;;;;5112784;28;20457;-72
2023/09/21 07:58:26;;;;;;;6.47;2.70;;;21.60;87.40;;;;;;5112618;28;20464;-72
2023/09/21 08:00:55;;;;;;;9.40;3.03;;;21.70;85.20;;;;;;5112655;28;20457;-71
2023/09/21 08:03:25;;;;;;;7.37;2.60;;;21.70;86.30;;;;;;5112633;28;20452;-70
2023/09/21 08:05:53;;;;;;;6.63;2.47;;;21.80;87.70;;;;;;5112815;28;20445;-70
2023/09/21 08:08:20;;;;;;;6.43;2.57;;;21.90;86.30;;;;;;5112500;28;20474;-70
2023/09/21 08:10:48;;;;;;;10.93;2.93;;;21.90;85.50;;;;;;5112675;28;20448;-71
2023/09/21 08:13:15;;;;;;;6.57;2.40;;;22.00;85.20;;;;;;5112801;28;20477;-72
2023/09/21 08:15:42;;;;;;;6.23;2.63;;;21.90;87.60;;;;;;5112431;28;20482;-72
2023/09/21 08:18:10;;;;;;;5.80;2.70;;;21.90;85.80;;;;;;5112364;28;20930;-73
2023/09/21 08:20:39;;;;;;;8.43;2.90;;;22.00;87.70;;;;;;5112283;28;20557;-72
2023/09/21 08:23:08;;;;;;;9.13;3.10;;;22.20;80.90;;;;;;5112563;28;20864;-72
2023/09/21 08:25:35;;;;;;;11.23;2.60;;;22.50;80.50;;;;;;5112423;28;20458;-69
2023/09/21 08:28:03;;;;;;;6.50;2.63;;;22.70;81.50;;;;;;5112297;28;20940;-71
2023/09/21 08:30:30;;;;;;;9.33;2.47;;;22.90;80.80;;;;;;5112183;28;20538;-70
2023/09/21 08:32:57;;;;;;;6.93;2.57;;;23.20;74.70;;;;;;5092038;28;20448;-71
2023/09/21 08:35:23;;;;;;;7.10;2.90;;;23.20;73.00;;;;;;5091745;28;20847;-70
2023/09/21 08:37:51;;;;;;;8.00;2.80;;;23.10;73.00;;;;;;5092033;28;20522;-69
2023/09/21 08:40:21;;;;;;;7.13;2.83;;;23.10;72.90;;;;;;5091707;28;20503;-71
2023/09/21 08:42:55;;;;;;;6.83;3.13;;;23.10;72.90;;;;;;5092352;28;20442;-70
2023/09/21 08:45:24;;;;;;;7.50;2.23;;;23.30;73.10;;;;;;5109519;28;20479;-71
2023/09/21 08:47:51;;;;;;;6.83;2.80;;;23.60;73.30;;;;;;5112051;28;20505;-72
2023/09/21 08:50:18;;;;;;;69.87;20.20;;;23.40;73.20;;;;;;5112042;28;20440;-71
2023/09/21 08:52:48;;;;;;;7.53;2.70;;;23.40;73.20;;;;;;5112068;28;20447;-70
2023/09/21 08:55:16;;;;;;;8.73;2.27;;;23.30;73.20;;;;;;5114071;28;20490;-71
2023/09/21 08:57:45;;;;;;;6.23;3.03;;;23.30;73.10;;;;;;5116243;28;20836;-72
2023/09/21 09:00:15;;;;;;;6.27;2.70;;;23.10;72.90;;;;;;5115790;28;20488;-72
2023/09/21 09:02:41;;;;;;;7.03;2.70;;;23.10;72.90;;;;;;5115925;27;20447;-69
2023/09/21 09:05:09;;;;;;;10.80;2.70;;;22.90;72.80;;;;;;5115927;28;20475;-70
2023/09/21 09:07:39;;;;;;;6.90;2.47;;;23.00;72.80;;;;;;5116174;28;20546;-69
2023/09/21 09:10:08;;;;;;;7.03;2.37;;;22.80;72.70;;;;;;5116194;28;20442;-70
2023/09/21 09:12:34;;;;;;;6.70;2.50;;;22.80;72.70;;;;;;5116343;28;20447;-69
2023/09/21 09:15:05;;;;;;;6.17;2.70;;;22.80;72.70;;;;;;5115808;28;20827;-70
2023/09/21 09:17:32;;;;;;;6.90;2.63;;;22.70;72.60;;;;;;5115852;28;20458;-70
2023/09/21 09:20:02;;;;;;;6.47;2.40;;;22.70;73.10;;;;;;5115428;28;20482;-70
2023/09/21 09:22:31;;;;;;;7.40;2.90;;;22.80;72.70;;;;;;5114786;28;20787;-73
2023/09/21 09:25:04;;;;;;;9.40;2.57;;;22.90;72.90;;;;;;5111884;28;20198;-69
2023/09/21 09:27:31;;;;;;;6.77;2.30;;;23.00;72.80;;;;;;5115820;28;20493;-68
2023/09/21 09:29:59;;;;;;;6.40;2.30;;;23.00;72.80;;;;;;5115550;28;20443;-70
2023/09/21 09:32:35;;;;;;;6.70;2.40;;;22.90;73.60;;;;;;5115474;28;20450;-69
2023/09/21 09:35:04;;;;;;;8.70;2.90;;;22.80;72.70;;;;;;5115615;28;20804;-70
2023/09/21 09:37:34;;;;;;;7.30;2.73;;;22.60;72.50;;;;;;5115255;28;20458;-70
2023/09/21 09:40:18;;;;;;;7.37;2.87;;;22.40;72.30;;;;;;5114879;28;20479;-71
2023/09/21 09:42:46;;;;;;;5.73;2.57;;;22.40;75.00;;;;;;5114844;28;20516;-70
2023/09/21 09:45:18;;;;;;;7.60;3.30;;;22.40;76.50;;;;;;5115301;28;20545;-69
2023/09/21 09:47:50;;;;;;;6.07;2.53;;;22.30;72.20;;;;;;5115231;28;20459;-70
2023/09/21 09:50:23;;;;;;;5.60;2.53;;;22.30;72.30;;;;;;5114791;28;20451;-70
2023/09/21 09:52:53;;;;;;;7.50;2.40;;;22.20;76.30;;;;;;5114679;28;20543;-69
2023/09/21 09:55:25;;;;;;;8.70;3.00;;;22.30;79.50;;;;;;5114775;28;20473;-70
2023/09/21 09:57:54;;;;;;;7.67;3.20;;;22.20;72.10;;;;;;5114848;28;20943;-70
2023/09/21 10:00:22;;;;;;;6.63;2.70;;;22.20;74.00;;;;;;5114497;28;21003;-70
2023/09/21 10:02:53;;;;;;;7.47;2.87;;;22.30;75.30;;;;;;5114822;28;20856;-69
2023/09/21 10:05:20;;;;;;;10.60;2.80;;;22.30;76.20;;;;;;5114397;27;20448;-70
2023/09/21 10:07:51;;;;;;;7.50;2.40;;;22.30;75.20;;;;;;5114486;28;20474;-70
2023/09/21 10:10:20;;;;;;;8.93;2.17;;;22.40;75.70;;;;;;5114354;28;20551;-69
2023/09/21 10:12:50;;;;;;;10.00;3.47;;;22.40;80.30;;;;;;5114644;28;20543;-70
2023/09/21 10:15:18;;;;;;;8.27;2.93;;;22.30;72.20;;;;;;5114351;28;20454;-70
2023/09/21 10:17:46;;;;;;;8.33;3.20;;;22.40;72.30;;;;;;5113814;28;20451;-69
2023/09/21 10:20:24;;;;;;;6.40;2.50;;;22.40;73.60;;;;;;5113849;27;20533;-69
2023/09/21 10:22:53;;;;;;;6.37;2.50;;;22.30;72.20;;;;;;5114569;28;20592;-68
2023/09/21 10:25:36;;;;;;;6.20;2.33;;;22.30;75.30;;;;;;5114603;28;20452;-68
2023/09/21 10:28:35;;;;;;;7.33;3.07;;;22.40;76.40;;;;;;5112238;28;20819;-68
2023/09/21 10:31:20;;;;;;;8.00;2.60;;;22.50;72.70;;;;;;5093372;28;20455;-68
2023/09/21 10:34:07;;;;;;;6.83;2.33;;;22.60;74.50;;;;;;5093343;28;20455;-69
2023/09/21 10:36:40;;;;;;;5.70;2.20;;;22.60;72.50;;;;;;5093297;28;21000;-69
2023/09/21 10:39:26;;;;;;;6.20;2.60;;;22.80;72.70;;;;;;5093180;28;20510;-68
2023/09/21 10:41:57;;;;;;;5.70;2.13;;;22.70;72.60;;;;;;5093497;28;20450;-69
2023/09/21 10:44:56;;;;;;;7.93;3.03;;;22.70;72.60;;;;;;5093404;28;20540;-68
2023/09/21 10:47:29;;;;;;;6.20;2.53;;;22.70;72.60;;;;;;5092905;28;20455;-69
2023/09/21 10:49:58;;;;;;;6.00;2.40;;;22.60;75.40;;;;;;5092715;28;20510;-68
2023/09/21 10:52:28;;;;;;;8.40;2.70;;;22.40;72.30;;;;;;5092881;28;20461;-70
2023/09/21 10:54:56;;;;;;;7.90;2.83;;;22.20;74.00;;;;;;5093111;28;20448;-68
2023/09/21 10:57:25;;;;;;;5.00;2.10;;;22.10;80.10;;;;;;5092957;28;20452;-68
2023/09/21 10:59:53;;;;;;;10.50;3.23;;;22.00;80.00;;;;;;5092394;28;21017;-69
2023/09/21 11:02:20;;;;;;;6.90;2.53;;;21.90;79.90;;;;;;5092740;28;20962;-69
2023/09/21 11:04:48;;;;;;;9.00;2.60;;;21.90;79.90;;;;;;5092798;28;20820;-69
2023/09/21 11:07:16;;;;;;;9.00;2.33;;;21.90;79.90;;;;;;5092802;28;20479;-69
2023/09/21 11:09:45;;;;;;;6.17;2.30;;;22.00;80.00;;;;;;5092556;28;20447;-69
2023/09/21 11:12:13;;;;;;;7.73;2.60;;;22.00;84.40;;;;;;5092377;28;20445;-69
2023/09/21 11:14:43;;;;;;;7.63;3.10;;;22.00;80.80;;;;;;5092730;28;20532;-68
2023/09/21 11:17:12;;;;;;;6.43;2.73;;;22.10;80.10;;;;;;5091997;28;20947;-68
2023/09/21 11:19:41;;;;;;;5.23;2.13;;;22.10;80.10;;;;;;5092304;28;21014;-68
2023/09/21 11:22:08;;;;;;;7.57;2.70;;;22.10;78.70;;;;;;5092256;28;20451;-68
2023/09/21 11:24:37;;;;;;;6.47;2.90;;;22.10;80.10;;;;;;5092943;28;20541;-69
2023/09/21 11:27:09;;;;;;;5.93;2.50;;;22.10;80.90;;;;;;5092267;28;20450;-68
2023/09/21 11:29:38;;;;;;;7.00;2.87;;;22.00;80.00;;;;;;5092453;28;20456;-68
2023/09/21 11:32:07;;;;;;;14.40;3.30;;;22.00;80.00;;;;;;5092547;28;20457;-68
2023/09/21 11:34:39;;;;;;;6.27;2.33;;;22.20;80.20;;;;;;5092365;28;20463;-68
2023/09/21 11:37:07;;;;;;;10.00;2.70;;;22.30;80.30;;;;;;5091902;28;20466;-69
2023/09/21 11:39:36;;;;;;;12.23;2.73;;;22.40;80.40;;;;;;5090671;28;20601;-69
2023/09/21 11:42:03;;;;;;;12.70;3.00;;;22.50;77.80;;;;;;5091725;28;20452;-69
2023/09/21 11:44:31;;;;;;;11.03;2.83;;;22.60;79.30;;;;;;5091705;28;20509;-69
2023/09/21 11:46:58;;;;;;;7.63;2.43;;;22.60;80.60;;;;;;5091687;28;20447;-69
2023/09/21 11:49:38;;;;;;;6.63;2.50;;;22.50;76.30;;;;;;5091646;28;20446;-69
2023/09/21 11:52:05;;;;;;;7.60;3.47;;;22.50;77.50;;;;;;5091153;28;20461;-69
2023/09/21 11:54:34;;;;;;;8.10;2.63;;;22.50;79.40;;;;;;5092590;28;20474;-69
2023/09/21 11:57:03;;;;;;;9.00;2.60;;;22.40;80.30;;;;;;5092568;28;20452;-69
2023/09/21 11:59:33;;;;;;;7.53;2.97;;;22.30;88.10;;;;;;5092279;28;20486;-69
2023/09/21 12:02:03;;;;;;;5.67;2.67;;;22.30;88.10;;;;;;5092095;28;20452;-69
2023/09/21 12:04:31;;;;;;;5.50;2.03;;;22.30;88.10;;;;;;5092222;28;21094;-69
2023/09/21 12:06:59;;;;;;;10.20;3.33;;;22.30;88.10;;;;;;5092581;28;20498;-69
2023/09/21 12:09:26;;;;;;;6.50;2.47;;;22.30;87.90;;;;;;5092304;28;21154;-69
2023/09/21 12:11:54;;;;;;;6.07;2.53;;;22.40;87.90;;;;;;5092186;28;20458;-68
2023/09/21 12:14:21;;;;;;;6.87;2.67;;;22.50;86.70;;;;;;5091886;28;20453;-69
2023/09/21 12:16:51;;;;;;;5.30;2.30;;;22.40;80.40;;;;;;5092096;28;20540;-69
2023/09/21 12:19:18;;;;;;;5.90;2.47;;;22.30;80.30;;;;;;5091910;28;20449;-69
2023/09/21 12:21:47;;;;;;;6.27;2.63;;;22.20;80.20;;;;;;5092230;28;20561;-69
2023/09/21 12:24:20;;;;;;;6.90;2.30;;;22.10;80.10;;;;;;5092182;28;20456;-69
2023/09/21 12:26:47;;;;;;;5.60;2.57;;;22.10;83.00;;;;;;5092192;28;20816;-69
2023/09/21 12:29:17;;;;;;;5.80;2.70;;;22.10;87.20;;;;;;5093600;28;20954;-69
2023/09/21 12:31:44;;;;;;;5.13;2.00;;;22.00;84.60;;;;;;5095684;28;20448;-69
2023/09/21 12:34:14;;;;;;;5.30;2.20;;;21.90;83.10;;;;;;5096112;28;20485;-69
2023/09/21 12:36:42;;;;;;;6.13;2.83;;;21.90;87.80;;;;;;5096129;28;20459;-69
2023/09/21 12:39:09;;;;;;;5.83;2.27;;;21.90;87.80;;;;;;5095782;28;20546;-69
2023/09/21 12:41:38;;;;;;;6.20;2.67;;;21.80;87.60;;;;;;5095652;28;20492;-69
2023/09/21 12:44:06;;;;;;;6.97;2.30;;;21.70;87.60;;;;;;5095715;28;20852;-68
2023/09/21 12:46:33;;;;;;;6.70;2.20;;;21.70;87.60;;;;;;5095962;28;20523;-69
2023/09/21 12:49:00;;;;;;;7.40;2.60;;;21.70;87.60;;;;;;5095512;28;20957;-69
2023/09/21 12:51:29;;;;;;;7.37;3.43;;;21.80;87.70;;;;;;5095469;28;20459;-69